Hovedside
METAR-TAF:

METAR-TAF

Lufthavner :

Polokwane, Sør-Afrika

breddegrad: 23-50-43S, lengdegrad: 29-27-31E, høyde over havet: 1242 m

Gjeldene værobservasjon

Denne rapporten ble laget for 18 minutter siden, klokken 02:00 UTC
Vind 3 kt fra Sør-sørvest
Temperatur 4°C
Luftfuktighet 87%
Trykk 1030 hPa

METAR: FAPP 140200Z AUTO 21003KT //// // ////// 04/02 Q1030

Tid: 04:18 (02:18 UTC)

Varsel

Denne rapporten ble laget for 17 timer og 18 minutter siden, klokken 09:00 UTC
Varsel gyldig fra 13. klokken 10 UTC til 13. klokken 18 UTC
Vind 3 kt fra skiftende retning
Sikt 10 km eller mer
ingen skyer under 1500 m og ingen bygeskyer
Blir
fra 13. klokken 12 UTC til 13. klokken 14 UTC
Vind 8 kt fra Nordøst

TAF: FAPP 130900Z 1310/1318 VRB03KT CAVOK TX21/1312Z TN12/1318Z BECMG 1312/1314 04008KT

Værobservasjoner og værvarsel for over 4000 flyplasser (METAR- og TAF-rapporter).

Tilgjengelige stasjoner er representert av de røde og gule prikkene på kartet.

Hold musepekeren over prikken for å se navnet på stasjonen.

Klikk så for å se værobservasjoner og -varsler.

For å forandre kartet kan du klikke på den grønne knappen med svart kryss for å zoome inn, på den grønne knappen med strek for å zoome ut, eller på de grønne pilene for å se tilstøtende kart.


METAR-TAF: